createdAt,value
2019-05-19T00:04:20.341Z,43.2
2019-05-19T00:09:22.158Z,43.1
2019-05-19T00:14:23.961Z,43.1
2019-05-19T00:19:26.544Z,43
2019-05-19T00:24:27.265Z,42.9
2019-05-19T00:29:27.424Z,42.8
2019-05-19T00:34:29.236Z,42.7
2019-05-19T00:39:31.095Z,42.7
2019-05-19T00:44:32.929Z,42.6
2019-05-19T00:49:41.133Z,42.6
2019-05-19T00:54:43.466Z,42.5
2019-05-19T00:59:45.296Z,42.4
2019-05-19T01:04:47.098Z,42.4
2019-05-19T01:09:48.907Z,42.2
2019-05-19T01:14:50.692Z,42.2
2019-05-19T01:19:55.773Z,42.1
2019-05-19T01:24:58.056Z,42.1
2019-05-19T01:29:59.894Z,42
2019-05-19T01:35:01.692Z,41.9
2019-05-19T01:40:03.452Z,41.9
2019-05-19T01:45:05.201Z,41.8
2019-05-19T01:50:18.395Z,41.7
2019-05-19T01:55:20.459Z,41.7
2019-05-19T02:00:22.202Z,41.6
2019-05-19T02:05:23.930Z,41.6
2019-05-19T02:10:25.647Z,41.5
2019-05-19T02:15:26.433Z,41.4
2019-05-19T02:20:33.004Z,41.4
2019-05-19T02:25:35.499Z,41.3
2019-05-19T02:30:36.794Z,41.2
2019-05-19T02:35:38.531Z,41.2
2019-05-19T02:40:40.260Z,41.1
2019-05-19T02:45:41.997Z,41.1
2019-05-19T02:50:51.923Z,41
2019-05-19T02:55:54.358Z,40.9
2019-05-19T03:00:56.137Z,40.9
2019-05-19T03:05:57.908Z,40.8
2019-05-19T03:10:59.711Z,40.8
2019-05-19T03:16:01.716Z,40.8
2019-05-19T03:21:10.706Z,40.7
2019-05-19T03:26:13.030Z,40.6
2019-05-19T03:31:14.791Z,40.6
2019-05-19T03:36:16.563Z,40.5
2019-05-19T03:41:18.328Z,40.4
2019-05-19T03:46:20.078Z,40.4
2019-05-19T03:51:30.586Z,40.3
2019-05-19T04:01:38.774Z,40.2
2019-05-19T04:06:40.533Z,40.2
2019-05-19T04:11:42.275Z,40.1
2019-05-19T04:16:44.017Z,40.1
2019-05-19T04:21:49.035Z,40
2019-05-19T04:26:51.018Z,40
2019-05-19T04:31:52.751Z,39.9
2019-05-19T04:36:54.494Z,39.9
2019-05-19T04:41:56.240Z,39.8
2019-05-19T04:46:57.969Z,39.7
2019-05-19T04:52:06.386Z,39.7
2019-05-19T04:57:08.490Z,39.7
2019-05-19T05:02:10.225Z,39.6
2019-05-19T05:07:11.244Z,39.6
2019-05-19T05:12:12.974Z,39.5
2019-05-19T05:17:14.678Z,39.4
2019-05-19T05:22:21.924Z,39.4
2019-05-19T05:27:24.208Z,39.4
2019-05-19T05:32:25.920Z,39.3
2019-05-19T05:37:27.631Z,39.2
2019-05-19T05:42:31.670Z,39.2
2019-05-19T05:47:33.742Z,39.2
2019-05-19T05:52:38.323Z,39.1
2019-05-19T05:57:40.407Z,39.1
2019-05-19T06:02:41.151Z,39
2019-05-19T06:07:42.939Z,39
2019-05-19T06:12:44.666Z,38.9
2019-05-19T06:17:46.377Z,38.9
2019-05-19T06:22:56.224Z,38.8
2019-05-19T06:27:58.721Z,38.8
2019-05-19T06:33:00.436Z,38.7
2019-05-19T06:38:02.859Z,38.7
2019-05-19T06:43:03.865Z,38.7
2019-05-19T06:48:05.563Z,38.6
2019-05-19T06:53:13.818Z,38.6
2019-05-19T06:58:15.972Z,38.6
2019-05-19T07:03:17.682Z,38.5
2019-05-19T07:08:18.914Z,38.4
2019-05-19T07:13:20.615Z,38.4
2019-05-19T07:18:22.298Z,38.4
2019-05-19T07:23:28.072Z,38.3
2019-05-19T07:28:30.350Z,38.3
2019-05-19T07:33:32.073Z,38.2
2019-05-19T07:38:33.791Z,38.2
2019-05-19T07:43:35.488Z,38.1
2019-05-19T07:48:37.204Z,38.1
2019-05-19T07:53:42.748Z,38.1
2019-05-19T07:58:44.941Z,38
2019-05-19T08:03:46.624Z,38
2019-05-19T08:08:48.291Z,37.9
2019-05-19T08:13:49.936Z,37.9
2019-05-19T08:18:51.560Z,37.9
2019-05-19T08:24:00.212Z,37.8
2019-05-19T08:29:02.549Z,37.8
2019-05-19T08:34:04.197Z,37.7
2019-05-19T08:39:05.858Z,37.7
2019-05-19T08:44:07.482Z,37.7
2019-05-19T08:49:08.160Z,37.6
2019-05-19T08:54:14.603Z,37.6
2019-05-19T08:59:17.621Z,37.6
2019-05-19T09:04:19.265Z,37.5
2019-05-19T09:09:20.886Z,37.5
2019-05-19T09:14:22.535Z,37.4
2019-05-19T09:19:24.162Z,37.4
2019-05-19T09:24:30.309Z,37.4
2019-05-19T09:29:32.414Z,37.3
2019-05-19T09:34:34.037Z,37.3
2019-05-19T09:39:35.667Z,37.2
2019-05-19T09:44:37.279Z,37.2
2019-05-19T09:49:38.902Z,37.2
2019-05-19T09:54:45.037Z,37.1
2019-05-19T09:59:47.251Z,37.1
2019-05-19T10:04:48.884Z,37.1
2019-05-19T10:09:50.513Z,37.1
2019-05-19T10:14:52.135Z,37
2019-05-19T10:19:53.772Z,36.9
2019-05-19T10:25:10.669Z,36.9
2019-05-19T10:30:20.272Z,36.9
2019-05-19T10:35:21.910Z,37.9
2019-05-19T10:40:27.248Z,39.7
2019-05-19T10:45:29.016Z,40.8
2019-05-19T10:50:30.777Z,41.6
2019-05-19T10:55:36.346Z,42.4
2019-05-19T11:00:37.001Z,43.1
2019-05-19T11:05:37.557Z,43.7
2019-05-19T11:10:38.172Z,44.2
2019-05-19T11:15:39.716Z,44.7
2019-05-19T11:20:44.973Z,45.1
2019-05-19T11:25:51.305Z,45.5
2019-05-19T11:30:52.954Z,45.8
2019-05-19T11:41:04.127Z,45.7
2019-05-19T11:46:04.713Z,45.1
2019-05-19T11:51:05.204Z,45.5
2019-05-19T11:56:08.051Z,45.7
2019-05-19T12:01:11.939Z,46.1
2019-05-19T12:06:13.004Z,46.1
2019-05-19T12:11:15.544Z,44.2
2019-05-19T12:16:17.231Z,40
2019-05-19T12:21:18.762Z,39.2
2019-05-19T12:26:23.414Z,40.7
2019-05-19T12:31:25.672Z,41.6
2019-05-19T12:36:27.465Z,42.7
2019-05-19T12:41:27.619Z,43.6
2019-05-19T12:46:27.785Z,44.4
2019-05-19T12:51:28.703Z,44.8
2019-05-19T12:56:38.992Z,45.2
2019-05-19T13:01:39.492Z,45.8
2019-05-19T13:06:39.735Z,46.1
2019-05-19T13:11:39.991Z,46.4
2019-05-19T13:16:40.971Z,46.7
2019-05-19T13:21:41.267Z,47.1
2019-05-19T13:26:55.457Z,47.2
2019-05-19T13:31:59.258Z,47.4
2019-05-19T13:36:59.527Z,47.6
2019-05-19T13:41:59.786Z,47.7
2019-05-19T13:47:01.008Z,47.9
2019-05-19T13:52:01.314Z,47.9
2019-05-19T13:57:11.604Z,47.9
2019-05-19T14:02:12.750Z,48
2019-05-19T14:07:13.076Z,48
2019-05-19T14:12:13.420Z,48
2019-05-19T14:17:13.958Z,48.1
2019-05-19T14:22:14.279Z,48.1
2019-05-19T14:27:28.711Z,48.1
2019-05-19T14:32:30.006Z,48.1
2019-05-19T14:37:30.336Z,48.1
2019-05-19T14:42:30.678Z,48.2
2019-05-19T14:47:31.012Z,48.2
2019-05-19T14:52:32.580Z,48.1
2019-05-19T14:57:44.237Z,48.1
2019-05-19T15:02:45.393Z,48.1
2019-05-19T15:07:45.696Z,48.1
2019-05-19T15:12:46.016Z,48.2
2019-05-19T15:17:47.758Z,48.1
2019-05-19T15:22:48.061Z,48.1
2019-05-19T15:27:59.630Z,48.1
2019-05-19T15:33:00.123Z,48.1
2019-05-19T15:38:00.430Z,48
2019-05-19T15:43:01.597Z,48
2019-05-19T15:48:02.035Z,48.1
2019-05-19T15:53:02.344Z,48.1
2019-05-19T15:58:15.430Z,48.1
2019-05-19T16:03:17.696Z,48.1
2019-05-19T16:08:18.066Z,48
2019-05-19T16:13:21.738Z,48
2019-05-19T16:18:22.377Z,47.9
2019-05-19T16:23:22.650Z,47.9
2019-05-19T16:28:30.178Z,48
2019-05-19T16:33:31.108Z,48
2019-05-19T16:38:31.425Z,48
2019-05-19T16:43:33.643Z,47.9
2019-05-19T16:48:34.346Z,47.9
2019-05-19T16:53:34.632Z,47.9
2019-05-19T16:58:44.733Z,47.9
2019-05-19T17:03:45.466Z,48
2019-05-19T17:08:45.748Z,47.9
2019-05-19T17:13:46.018Z,47.7
2019-05-19T17:18:46.295Z,47.6
2019-05-19T17:23:46.554Z,47.8
2019-05-19T17:28:59.722Z,47.8
2019-05-19T17:34:00.554Z,47.8
2019-05-19T17:39:00.827Z,47.7
2019-05-19T17:44:01.067Z,47.7
2019-05-19T17:49:06.022Z,47.7
2019-05-19T17:54:06.523Z,47.6
2019-05-19T17:59:16.053Z,47.6
2019-05-19T18:04:16.697Z,47.5
2019-05-19T18:09:16.947Z,47.5
2019-05-19T18:14:17.238Z,47.5
2019-05-19T18:19:18.742Z,47.4
2019-05-19T18:24:18.982Z,47.4
2019-05-19T18:29:30.421Z,47.4
2019-05-19T18:34:31.703Z,47.3
2019-05-19T18:39:33.470Z,47.2
2019-05-19T18:44:35.310Z,47.2
2019-05-19T18:49:35.536Z,47.2
2019-05-19T18:54:36.988Z,47.1
2019-05-19T18:59:46.748Z,47.1
2019-05-19T19:04:50.602Z,47
2019-05-19T19:09:51.590Z,47
2019-05-19T19:14:53.091Z,46.9
2019-05-19T19:19:53.384Z,46.9
2019-05-19T19:24:53.669Z,46.8
2019-05-19T19:30:02.805Z,46.7
2019-05-19T19:35:04.350Z,46.7
2019-05-19T19:40:04.603Z,46.7
2019-05-19T19:45:04.851Z,46.6
2019-05-19T19:50:05.143Z,46.6
2019-05-19T19:55:05.399Z,46.5
2019-05-19T20:00:17.131Z,46.5
2019-05-19T20:05:18.070Z,46.4
2019-05-19T20:10:18.559Z,46.4
2019-05-19T20:15:18.808Z,46.3
2019-05-19T20:20:19.045Z,46.2
2019-05-19T20:25:19.323Z,46.2
2019-05-19T20:30:34.114Z,46.2
2019-05-19T20:35:35.695Z,46.1
2019-05-19T20:40:35.915Z,46.1
2019-05-19T20:45:36.213Z,46
2019-05-19T20:50:36.513Z,45.9
2019-05-19T20:55:36.752Z,45.9
2019-05-19T21:00:49.329Z,45.8
2019-05-19T21:05:50.558Z,45.8
2019-05-19T21:10:50.805Z,45.7
2019-05-19T21:15:51.039Z,45.7
2019-05-19T21:20:51.308Z,45.6
2019-05-19T21:25:51.536Z,45.6
2019-05-19T21:31:04.743Z,45.5
2019-05-19T21:36:05.592Z,45.4
2019-05-19T21:41:05.877Z,45.4
2019-05-19T21:46:06.643Z,45.3
2019-05-19T21:51:06.950Z,45.3
2019-05-19T21:56:07.190Z,45.2
2019-05-19T22:01:20.718Z,45.2
2019-05-19T22:06:22.455Z,45.1
2019-05-19T22:11:22.712Z,45.1
2019-05-19T22:16:22.930Z,45
2019-05-19T22:21:23.175Z,44.9
2019-05-19T22:26:23.385Z,44.9
2019-05-19T22:31:36.152Z,44.9
2019-05-19T22:36:36.869Z,44.8
2019-05-19T22:41:37.048Z,44.7
2019-05-19T22:46:37.265Z,44.7
2019-05-19T22:51:37.458Z,44.6
2019-05-19T22:56:37.877Z,44.6
2019-05-19T23:01:50.927Z,44.5
2019-05-19T23:06:51.307Z,44.4
2019-05-19T23:11:51.500Z,44.4
2019-05-19T23:16:51.681Z,44.4
2019-05-19T23:21:51.868Z,44.3
2019-05-19T23:26:52.039Z,44.2
2019-05-19T23:32:04.952Z,44.2
2019-05-19T23:37:06.461Z,44.1
2019-05-19T23:42:06.630Z,44.1
2019-05-19T23:47:06.811Z,44.1
2019-05-19T23:52:06.993Z,44
2019-05-19T23:57:07.251Z,43.9
